Disclaimer

Please do not use the information listed here in-flight or in-navigation, as they are not provided to us by the airports but are provided by volunteers, so they might be outdated.

Search


Regions


Airport information page

Radio informations:
Tower (TWR) - 118.3 MHz
TMA - 119.5 MHz
VOLMET - 126.8 MHz
GND EAST - 129.2 MHz
Clearance delivery - 119.35 MHz
Automatic Terminal Information Service (ATIS) - 132.5 MHz
Approach (APP) - 132.05 MHz

Airport informations:
Latitude: 32° 00' 41.00" N
Longitude: 034° 53' 12.00" E
Elevation: 135 feet - 41 meters
Operating hours: 24 hour operations
Operating agency: Civil government, landing fees and diplomatic clearance may be required
Timezone: UTC+2(+3DT)
Fuel: Jet A1, without icing nhibitor.

100/130 MIL Spec, low lead, aviation gasoline (BLUE)

Runway information:
03/21 - 5840 x 148 feet< - >1780 x 45 meters
08/26 - 11998 x 148 feet< - >3657 x 45 meters
12/30 - 10209 x 148 feet< - >3112 x 45 meters

Recent METARs:
LLBG 211850Z VRB02KT CAVOK 20/16 Q1017 NOSIG RMK BKN150
LLBG 211920Z VRB03KT CAVOK 20/16 Q1017 NOSIG RMK SCT120
LLBG 211950Z VRB02KT 9999 FEW023 20/16 Q1017 NOSIG RMK SCT150

Airport on the map: